Terminal Aerodrome Forecast
Issued by NWS Wilmington, OH

Current Version | Previous Version | Graphics & Text | Print | Product List | Glossary On
Versions: 1 2 3 4 5 6 7 8 9 10 11 12 13 14 15 16 17
000
FTUS41 KILN 260900 AAA
TAFILN
TAF AMD
KILN 260945Z 2610/2706 34012KT 4SM -SHRA BR SCT022 OVC040
      TEMPO 2610/2611 2SM -SHRA BR OVC022
     FM261100 36012KT 3SM -SHRA BR OVC015
     FM261300 33012G22KT 3SM -SHRA BR OVC010
     FM261800 32010G20KT P6SM BKN025
     FM262200 32014KT P6SM SCT040 BKN100=

USA.gov is the U.S. government's official web portal to all federal, state and local government web resources and services.